Time;durP1;ratioP1;P1;durP2;ratioP2;P2;SDS_P1;SDS_P2;PMS_P1;PMS_P2;Temp;Humidity;BMP_temperature;BMP_pressure;BME280_temperature;BME280_humidity;BME280_pressure;Samples;Min_cycle;Max_cycle;Signal;HPM_P1;HPM_P2
2021/09/27 00:01:28;;;;;;;29.40;22.48;;;20.00;99.90;;;20.35;78.48;101315.16;4957542;29;20051;-71
2021/09/27 00:03:56;;;;;;;27.50;21.65;;;20.00;99.90;;;20.00;78.78;101270.75;4957297;29;20075;-72
2021/09/27 00:06:25;;;;;;;26.63;21.40;;;19.90;99.90;;;20.20;78.66;101308.56;4957492;29;20043;-71
2021/09/27 00:08:54;;;;;;;26.23;20.80;;;19.80;99.90;;;20.06;79.18;101312.63;4957137;29;20043;-72
2021/09/27 00:11:26;;;;;;;25.88;20.67;;;19.80;99.90;;;20.00;79.27;101310.16;4957692;29;20130;-71
2021/09/27 00:13:59;;;;;;;24.27;20.08;;;19.70;99.90;;;19.87;79.54;101312.41;4957654;29;20051;-71
2021/09/27 00:16:29;;;;;;;26.45;21.42;;;19.60;99.90;;;19.90;79.97;101312.28;4957086;29;20110;-71
2021/09/27 00:18:58;;;;;;;27.65;21.00;;;19.60;99.90;;;19.95;79.85;101315.72;4956956;29;20556;-71
2021/09/27 00:21:31;;;;;;;22.95;19.73;;;19.60;99.90;;;19.94;79.93;101303.19;4957334;29;20421;-72
2021/09/27 00:24:00;;;;;;;28.80;21.92;;;19.60;99.90;;;19.76;79.96;101268.97;4957229;29;20102;-72
2021/09/27 00:26:31;;;;;;;30.75;22.10;;;19.60;99.90;;;19.84;80.41;101300.91;4957148;29;20046;-71
2021/09/27 00:28:59;;;;;;;32.38;21.70;;;19.50;99.90;;;19.84;80.50;101290.19;4957048;29;20098;-71
2021/09/27 00:31:28;;;;;;;31.88;21.90;;;19.50;99.90;;;19.79;80.55;101282.28;4956712;29;20043;-71
2021/09/27 00:33:57;;;;;;;28.38;21.30;;;19.60;99.90;;;19.91;80.45;101289.00;4956701;29;20062;-71
2021/09/27 00:36:25;;;;;;;22.77;20.08;;;19.60;99.90;;;19.86;80.11;101283.78;4956923;29;20067;-71
2021/09/27 00:38:54;;;;;;;26.13;21.48;;;19.50;99.90;;;19.75;81.01;101283.31;4957114;29;20504;-71
2021/09/27 00:41:23;;;;;;;27.58;21.73;;;19.40;99.90;;;19.75;80.66;101284.19;4939607;29;20141;-72
2021/09/27 00:43:54;;;;;;;29.70;21.67;;;19.40;99.90;;;19.71;80.69;101290.59;4956537;29;20043;-71
2021/09/27 00:46:26;;;;;;;26.92;22.50;;;19.40;99.90;;;19.72;81.15;101291.47;4956558;29;20070;-71
2021/09/27 00:48:56;;;;;;;28.77;22.05;;;19.40;99.90;;;19.75;81.04;101284.19;4956496;29;20053;-71
2021/09/27 00:51:29;;;;;;;28.35;21.95;;;19.40;99.90;;;19.77;80.75;101286.81;4956390;29;20101;-71
2021/09/27 00:54:01;;;;;;;28.38;21.60;;;19.40;99.90;;;19.59;80.06;101265.97;4956642;29;20047;-72
2021/09/27 00:56:40;;;;;;;32.33;22.33;;;19.30;99.90;;;19.09;81.02;101197.94;4939262;29;20442;-71
2021/09/27 00:59:12;;;;;;;30.50;22.80;;;19.30;99.90;;;19.57;81.26;101275.88;4956164;29;20051;-72
2021/09/27 01:01:43;;;;;;;32.13;23.50;;;19.20;99.90;;;19.57;81.58;101292.00;4955845;28;20580;-71
2021/09/27 01:04:12;;;;;;;32.63;25.08;;;19.30;99.90;;;19.54;81.78;101282.25;4956009;29;20043;-71
2021/09/27 01:06:54;;;;;;;31.15;23.77;;;19.30;99.90;;;19.62;81.58;101282.88;4956061;29;20043;-71
2021/09/27 01:09:35;;;;;;;27.42;22.88;;;19.30;99.90;;;19.58;81.40;101272.28;4956069;29;20072;-71
2021/09/27 01:12:36;;;;;;;34.00;23.70;;;19.30;99.90;;;19.54;81.05;101276.91;4956227;29;20457;-72
2021/09/27 01:15:26;;;;;;;27.75;23.38;;;19.30;99.90;;;19.63;80.89;101273.00;4944283;29;20063;-72
2021/09/27 01:18:11;;;;;;;29.40;23.52;;;19.30;99.90;;;19.63;80.64;101271.19;4956222;29;20110;-71
2021/09/27 01:21:16;;;;;;;41.08;24.30;;;19.30;99.90;;;19.59;80.90;101274.03;4955861;29;20055;-71
2021/09/27 01:24:32;;;;;;;28.60;22.30;;;19.30;99.90;;;19.31;80.24;101260.69;4955812;29;20043;-71
2021/09/27 01:27:41;;;;;;;31.00;25.50;;;19.20;99.90;;;19.34;80.33;101278.50;4937941;29;20610;-71
2021/09/27 01:30:49;;;;;;;32.00;24.63;;;19.10;99.90;;;19.17;80.81;101279.03;4953568;29;20114;-71
2021/09/27 01:33:24;;;;;;;35.03;26.77;;;19.00;99.90;;;19.25;81.50;101297.56;4908261;29;20067;-71
2021/09/27 01:36:14;;;;;;;32.65;25.70;;;19.00;99.90;;;19.14;82.05;101263.06;4955873;29;20405;-71
2021/09/27 01:38:48;;;;;;;30.30;24.30;;;18.90;99.90;;;19.04;81.75;101261.59;4955861;29;20039;-71
2021/09/27 01:41:30;;;;;;;35.13;26.92;;;18.90;99.90;;;19.04;81.96;101277.69;4955712;29;20047;-71
2021/09/27 01:44:10;;;;;;;32.80;25.23;;;18.80;99.90;;;18.91;82.70;101279.88;4955703;29;20051;-71
2021/09/27 01:46:47;;;;;;;37.47;27.77;;;18.70;99.90;;;18.78;83.19;101266.91;4955467;29;20054;-71
2021/09/27 01:49:24;;;;;;;37.38;27.00;;;18.60;99.90;;;18.89;83.39;101281.72;4955440;29;20043;-71
2021/09/27 01:52:00;;;;;;;35.13;27.10;;;18.60;99.90;;;18.81;83.44;101275.72;4955605;29;20051;-71
2021/09/27 01:54:37;;;;;;;36.40;27.38;;;18.60;99.90;;;18.63;83.93;101240.59;4955310;29;20444;-71
2021/09/27 01:57:16;;;;;;;37.90;27.83;;;18.60;99.90;;;18.88;84.28;101263.91;4955938;29;20043;-71
2021/09/27 01:59:56;;;;;;;39.42;28.58;;;18.60;99.90;;;19.09;84.54;101278.41;4955699;29;20047;-71
2021/09/27 02:02:34;;;;;;;37.90;28.50;;;18.70;99.90;;;19.11;84.62;101256.88;4955269;29;20055;-71
2021/09/27 02:05:11;;;;;;;39.17;28.33;;;18.80;99.90;;;19.25;84.73;101276.97;4955784;29;20445;-71
2021/09/27 02:08:00;;;;;;;38.35;28.20;;;18.90;99.90;;;19.34;84.59;101267.75;4955196;29;20054;-71
2021/09/27 02:10:36;;;;;;;40.53;27.95;;;18.90;99.90;;;19.46;84.13;101272.72;4955149;29;20101;-71
2021/09/27 02:13:11;;;;;;;38.38;30.25;;;19.00;99.90;;;19.34;84.33;101274.00;4955096;28;20047;-71
2021/09/27 02:15:45;;;;;;;37.38;29.27;;;19.00;99.90;;;19.30;84.47;101282.19;4955075;29;20494;-71
2021/09/27 02:18:22;;;;;;;37.60;28.83;;;18.90;99.90;;;18.99;84.28;101223.31;4955283;29;20052;-71
2021/09/27 02:20:58;;;;;;;35.05;29.45;;;19.00;99.90;;;19.16;84.01;101247.78;4955143;29;20075;-71
2021/09/27 02:23:32;;;;;;;33.08;26.75;;;19.00;99.90;;;19.35;83.52;101273.09;4954991;29;20050;-71
2021/09/27 02:26:00;;;;;;;35.42;29.08;;;19.00;99.90;;;19.37;83.10;101265.00;4954826;29;20048;-71
2021/09/27 02:28:29;;;;;;;37.08;29.42;;;19.00;99.90;;;19.39;82.52;101271.19;4955331;29;20039;-71
2021/09/27 02:31:07;;;;;;;38.75;28.38;;;19.00;99.90;;;19.24;82.05;101250.22;4955108;29;20047;-71
2021/09/27 02:33:44;;;;;;;35.17;28.58;;;19.00;99.90;;;19.29;81.92;101262.53;4955196;29;20075;-71
2021/09/27 02:36:18;;;;;;;35.33;28.73;;;18.90;99.90;;;19.21;81.84;101258.34;4955418;29;20040;-71
2021/09/27 02:38:56;;;;;;;35.33;28.35;;;18.90;99.90;;;19.28;81.62;101247.34;4955134;29;20039;-71
2021/09/27 02:41:30;;;;;;;37.45;28.20;;;18.90;99.90;;;19.20;81.23;101237.81;4955019;29;20043;-72
2021/09/27 02:43:59;;;;;;;35.00;29.33;;;18.90;99.90;;;19.26;81.28;101253.72;4955012;29;20051;-72
2021/09/27 02:46:29;;;;;;;38.30;28.58;;;18.90;99.90;;;19.28;81.14;101249.19;4937529;29;20102;-71
2021/09/27 02:49:09;;;;;;;36.13;29.48;;;18.80;99.90;;;19.29;81.13;101256.28;4955039;29;20429;-71
2021/09/27 02:51:40;;;;;;;37.97;28.02;;;18.90;99.90;;;19.14;81.03;101227.31;4955161;29;20098;-71
2021/09/27 02:54:11;;;;;;;34.40;28.17;;;18.90;99.90;;;19.20;81.32;101248.56;4955021;29;20098;-72
2021/09/27 02:57:04;;;;;;;37.40;27.38;;;18.90;99.90;;;19.10;81.40;101213.13;4937412;29;20481;-71
2021/09/27 02:59:42;;;;;;;33.83;26.88;;;18.90;99.90;;;19.22;81.29;101238.66;4954701;29;20054;-71
2021/09/27 03:02:20;;;;;;;37.28;27.80;;;18.80;99.90;;;18.90;81.82;101211.09;4954816;29;20047;-71
2021/09/27 03:05:05;;;;;;;34.25;27.95;;;18.80;99.90;;;19.00;82.29;101240.28;4953602;29;20048;-71
2021/09/27 03:07:54;;;;;;;35.58;28.63;;;18.70;99.90;;;18.98;82.45;101232.31;4954862;29;20059;-71
2021/09/27 03:10:33;;;;;;;37.17;28.50;;;18.70;99.90;;;18.94;82.33;101236.00;4954554;29;20122;-71
2021/09/27 03:13:13;;;;;;;38.05;28.90;;;18.70;99.90;;;18.68;82.53;101202.00;4954528;29;20106;-71
2021/09/27 03:16:12;;;;;;;36.08;27.23;;;18.60;99.90;;;18.88;82.46;101236.19;4954789;29;20118;-71
2021/09/27 03:18:58;;;;;;;33.63;27.63;;;18.60;99.90;;;18.62;82.65;101190.63;4954768;29;20067;-71
2021/09/27 03:21:44;;;;;;;35.63;28.50;;;18.60;99.90;;;18.72;82.67;101197.41;4954615;29;20526;-71
2021/09/27 03:24:32;;;;;;;38.53;27.95;;;18.50;99.90;;;18.65;83.32;101212.84;4954492;29;20102;-71
2021/09/27 03:27:12;;;;;;;40.40;28.63;;;18.50;99.90;;;18.57;83.87;101222.91;4957524;29;20051;-71
2021/09/27 03:29:54;;;;;;;40.55;30.30;;;18.40;99.90;;;18.30;85.21;101220.16;4957921;29;20107;-71
2021/09/27 03:32:46;;;;;;;43.42;31.95;;;18.20;99.90;;;18.04;85.93;101200.41;4957909;29;20090;-71
2021/09/27 03:35:21;;;;;;;45.22;31.83;;;18.00;99.90;;;18.10;86.47;101207.38;4957874;29;20050;-71
2021/09/27 03:37:58;;;;;;;44.58;31.98;;;17.90;99.90;;;18.12;86.60;101210.88;4957857;29;20051;-71
2021/09/27 03:40:46;;;;;;;44.38;31.80;;;17.90;99.90;;;18.06;86.91;101204.84;4957582;29;20075;-71
2021/09/27 03:43:25;;;;;;;43.10;30.92;;;17.80;99.90;;;17.89;86.98;101208.00;4957809;29;20063;-71
2021/09/27 03:46:05;;;;;;;43.10;30.65;;;17.70;99.90;;;17.79;87.21;101185.09;4957916;29;20048;-71
2021/09/27 03:48:43;;;;;;;44.50;30.90;;;17.70;99.90;;;17.71;87.10;101176.44;4957622;29;20122;-71
2021/09/27 03:51:18;;;;;;;43.20;32.30;;;17.70;99.90;;;17.74;87.30;101181.69;4957521;29;20489;-71
2021/09/27 03:53:52;;;;;;;45.90;32.00;;;17.70;99.90;;;17.88;86.69;101201.78;4957512;29;20047;-71
2021/09/27 03:56:28;;;;;;;42.08;31.42;;;17.70;99.90;;;17.87;86.20;101194.66;4957364;29;20039;-71
2021/09/27 03:59:06;;;;;;;43.85;31.55;;;17.60;99.90;;;17.82;86.84;101179.69;4956383;29;20062;-71
2021/09/27 04:01:46;;;;;;;44.33;33.50;;;17.70;99.90;;;17.83;87.70;101200.16;4957447;29;20106;-71
2021/09/27 04:04:38;;;;;;;44.05;34.10;;;17.50;99.90;;;17.68;88.40;101196.13;4957361;29;20053;-71
2021/09/27 04:07:23;;;;;;;49.55;35.65;;;17.40;99.90;;;17.54;88.81;101198.28;4957542;29;20058;-69
2021/09/27 04:10:05;;;;;;;44.45;33.90;;;17.20;99.90;;;17.39;89.63;101189.78;4957449;29;20055;-72
2021/09/27 04:12:53;;;;;;;44.70;33.45;;;17.10;99.90;;;17.10;91.34;101180.75;4957708;29;20094;-73
2021/09/27 04:15:51;;;;;;;51.53;34.33;;;16.80;99.90;;;17.12;92.05;101194.97;4957047;29;20043;-73
2021/09/27 04:18:27;;;;;;;46.58;34.97;;;16.70;99.90;;;17.04;92.35;101185.38;4957296;29;20094;-72
2021/09/27 04:21:05;;;;;;;44.15;34.30;;;16.70;99.90;;;16.97;93.00;101167.75;4956777;29;20497;-74
2021/09/27 04:23:56;;;;;;;53.72;38.15;;;16.70;99.90;;;16.98;94.02;101183.72;4957265;29;20050;-71
2021/09/27 04:26:42;;;;;;;49.72;36.95;;;16.60;99.90;;;17.07;93.55;101193.31;4956888;29;20047;-72
2021/09/27 04:29:43;;;;;;;51.13;38.45;;;16.70;99.90;;;17.04;93.99;101183.59;4955938;29;20138;-72
2021/09/27 04:32:28;;;;;;;53.88;39.15;;;16.70;99.90;;;17.10;94.03;101185.22;4956726;29;20071;-72
2021/09/27 04:35:11;;;;;;;56.88;39.00;;;16.80;99.90;;;17.00;93.25;101155.16;4957098;29;20039;-72
2021/09/27 04:37:43;;;;;;;57.63;39.53;;;16.90;99.90;;;17.16;92.96;101185.06;4938604;29;20062;-72
2021/09/27 04:40:15;;;;;;;50.30;38.13;;;16.90;99.90;;;17.13;92.59;101186.00;4957182;29;20050;-72
2021/09/27 04:43:10;;;;;;;54.20;39.78;;;16.90;99.90;;;17.06;92.30;101175.50;4956560;29;20051;-72
2021/09/27 04:45:56;;;;;;;55.75;39.75;;;16.90;99.90;;;17.14;92.19;101186.88;4956845;29;20070;-72
2021/09/27 04:49:07;;;;;;;56.92;39.05;;;16.80;99.90;;;17.06;92.47;101183.53;4956526;29;20047;-72
2021/09/27 04:51:52;;;;;;;54.38;38.85;;;16.80;99.90;;;16.93;93.76;101187.44;4956702;29;20150;-72
2021/09/27 04:55:03;;;;;;;54.90;39.33;;;16.70;99.90;;;16.87;94.54;101179.56;4956420;29;20493;-72
2021/09/27 04:57:47;;;;;;;50.78;37.55;;;16.60;99.90;;;16.56;95.16;101142.06;4936805;29;20083;-72
2021/09/27 05:00:23;;;;;;;56.60;39.22;;;16.50;99.90;;;16.80;95.72;101168.16;4956264;29;20050;-72
2021/09/27 05:03:21;;;;;;;52.92;40.30;;;16.50;99.90;;;16.82;96.38;101160.13;4956093;29;20039;-72
2021/09/27 05:06:15;;;;;;;54.97;39.42;;;16.50;99.90;;;16.81;96.52;101161.91;4956428;29;20098;-72
2021/09/27 05:09:03;;;;;;;55.53;40.33;;;16.50;99.90;;;16.76;97.16;101150.44;4956136;29;20035;-72
2021/09/27 05:12:25;;;;;;;56.30;38.17;;;16.50;99.90;;;16.63;98.15;101138.31;4956053;29;20051;-72
2021/09/27 05:15:15;;;;;;;51.58;38.65;;;16.40;99.90;;;16.70;98.58;101141.72;4956004;29;20039;-72
2021/09/27 05:18:11;;;;;;;54.65;41.00;;;16.40;99.90;;;16.74;99.03;101140.72;4956208;29;20047;-72
2021/09/27 05:21:19;;;;;;;60.67;41.78;;;16.40;99.90;;;16.54;99.94;101124.31;4956091;29;20063;-72
2021/09/27 05:24:02;;;;;;;63.40;44.47;;;16.40;99.90;;;16.45;100.00;101133.41;4934579;29;20060;-72
2021/09/27 05:26:46;;;;;;;64.43;42.78;;;16.20;99.90;;;16.45;100.00;101125.41;4956456;29;20106;-72
2021/09/27 05:29:36;;;;;;;61.60;42.80;;;16.20;99.90;;;16.54;100.00;101127.88;4956014;29;20106;-72
2021/09/27 05:32:35;;;;;;;59.60;41.78;;;16.20;99.90;;;16.70;100.00;101123.91;4956020;29;20083;-72
2021/09/27 05:35:18;;;;;;;62.63;44.03;;;16.30;99.90;;;16.78;100.00;101127.22;4955579;29;20087;-72
2021/09/27 05:38:01;;;;;;;59.10;42.15;;;16.40;99.90;;;16.72;100.00;101114.06;4955626;29;20106;-72
2021/09/27 05:40:34;;;;;;;59.00;41.20;;;16.50;99.90;;;16.59;100.00;101098.38;4955647;29;20043;-73
2021/09/27 05:43:47;;;;;;;67.93;43.35;;;16.50;99.90;;;16.94;100.00;101136.63;4955751;29;20098;-72
2021/09/27 05:46:42;;;;;;;61.30;41.47;;;16.60;99.90;;;16.88;100.00;101133.22;4955105;29;20058;-72
2021/09/27 05:49:19;;;;;;;59.80;41.13;;;16.60;99.90;;;16.89;100.00;101126.97;4955297;28;20075;-72
2021/09/27 05:51:53;;;;;;;59.63;40.88;;;16.70;99.90;;;16.80;100.00;101097.84;4955631;29;20054;-72
2021/09/27 05:54:32;;;;;;;58.88;41.45;;;16.70;99.90;;;16.95;100.00;101114.34;4955308;29;20035;-72
2021/09/27 05:57:08;;;;;;;64.10;41.53;;;16.70;99.90;;;16.99;100.00;101121.31;4955923;29;20047;-73
2021/09/27 05:59:46;;;;;;;52.08;37.88;;;16.70;99.90;;;17.00;100.00;101133.78;4955430;29;20421;-73
2021/09/27 06:02:35;;;;;;;52.28;37.55;;;16.70;99.90;;;17.07;100.00;101129.16;4955737;29;20101;-72
2021/09/27 06:05:17;;;;;;;51.70;35.85;;;16.80;99.90;;;17.20;99.51;101137.72;4955117;29;20043;-73
2021/09/27 06:07:58;;;;;;;51.95;36.13;;;17.00;99.90;;;17.26;99.49;101132.22;4954097;29;20051;-73
2021/09/27 06:10:35;;;;;;;44.47;32.80;;;17.00;99.90;;;17.31;98.74;101132.94;4955397;29;20054;-73
2021/09/27 06:13:13;;;;;;;43.38;33.15;;;17.10;99.90;;;17.30;98.77;101125.88;4955283;29;20075;-72
2021/09/27 06:15:47;;;;;;;45.15;32.70;;;17.10;99.90;;;17.30;98.66;101132.09;4955208;29;20051;-72
2021/09/27 06:18:31;;;;;;;43.08;31.80;;;17.10;99.90;;;17.32;98.53;101126.69;4955138;29;20449;-73
2021/09/27 06:21:21;;;;;;;41.05;29.60;;;17.10;99.90;;;17.31;98.37;101124.94;4954831;29;20051;-72
2021/09/27 06:24:06;;;;;;;42.78;30.48;;;17.10;99.90;;;17.18;98.83;101116.38;4954917;29;20456;-73
2021/09/27 06:26:44;;;;;;;40.78;28.42;;;17.00;99.90;;;16.92;98.89;101060.97;4954819;29;20169;-72
2021/09/27 06:29:21;;;;;;;38.90;28.48;;;17.00;99.90;;;17.19;98.80;101102.09;4954936;29;20490;-72
2021/09/27 06:32:00;;;;;;;38.63;28.45;;;17.00;99.90;;;17.20;99.09;101092.28;4954926;29;20117;-73
2021/09/27 06:34:35;;;;;;;37.78;29.33;;;17.00;99.90;;;17.15;99.63;101098.63;4937919;29;20138;-72
2021/09/27 06:37:05;;;;;;;39.33;29.10;;;16.90;99.90;;;17.08;100.00;101083.69;4954723;29;20074;-75
2021/09/27 06:39:35;;;;;;;36.53;27.63;;;16.80;99.90;;;17.02;100.00;101099.88;4955043;29;20050;-75
2021/09/27 06:42:04;;;;;;;41.15;29.95;;;16.80;99.90;;;17.04;100.00;101094.50;4954729;29;20047;-75
2021/09/27 06:44:33;;;;;;;36.47;29.75;;;16.80;99.90;;;17.12;100.00;101080.00;4954716;29;20047;-75
2021/09/27 06:47:01;;;;;;;44.20;28.42;;;16.80;99.90;;;16.92;100.00;101054.72;4955003;29;20067;-76
2021/09/27 06:49:30;;;;;;;34.40;27.30;;;16.90;99.90;;;17.09;100.00;101077.41;4954952;29;20397;-77
2021/09/27 06:51:59;;;;;;;37.90;29.80;;;16.80;99.90;;;17.12;100.00;101088.03;4954786;29;20052;-74
2021/09/27 06:54:28;;;;;;;41.22;30.23;;;16.90;99.90;;;17.15;100.00;101085.25;4938351;29;20040;-74
2021/09/27 06:56:59;;;;;;;38.55;28.15;;;16.90;99.90;;;17.23;100.00;101076.16;4954532;29;20107;-76
2021/09/27 06:59:29;;;;;;;42.88;29.08;;;17.00;99.90;;;17.21;100.00;101076.19;4937651;28;20051;-77
2021/09/27 07:02:18;;;;;;;40.42;29.88;;;17.10;99.90;;;17.38;100.00;101094.44;4958620;29;20050;-71
2021/09/27 07:04:47;;;;;;;45.95;27.60;;;17.20;99.90;;;17.44;100.00;101123.69;4958555;29;20067;-71
2021/09/27 07:07:16;;;;;;;36.72;28.73;;;17.20;99.90;;;17.44;100.00;101095.13;4958469;29;20396;-72
2021/09/27 07:09:45;;;;;;;38.28;31.20;;;17.30;99.90;;;17.67;100.00;101121.25;4958241;29;20043;-72
2021/09/27 07:12:15;;;;;;;40.17;32.92;;;17.40;99.90;;;17.61;100.00;101100.91;4958443;29;20053;-75
2021/09/27 07:14:43;;;;;;;43.20;34.10;;;17.40;99.90;;;17.68;100.00;101109.63;4958076;29;20101;-74
2021/09/27 07:17:12;;;;;;;39.13;33.85;;;17.50;99.90;;;17.25;99.84;101037.75;4957056;29;20501;-75
2021/09/27 07:19:41;;;;;;;52.08;41.35;;;17.50;99.90;;;17.80;99.93;101111.94;4957904;29;20515;-75
2021/09/27 07:22:22;;;;;;;56.60;41.42;;;17.50;99.90;;;17.65;99.73;101077.63;4958032;29;20050;-74
2021/09/27 07:24:51;;;;;;;53.70;44.33;;;17.60;99.90;;;17.86;99.60;101103.72;4958234;29;20461;-74
2021/09/27 07:27:20;;;;;;;58.50;45.40;;;17.60;99.90;;;17.87;99.75;101086.72;4958059;29;20087;-74
2021/09/27 07:29:49;;;;;;;59.83;44.67;;;17.60;99.90;;;17.88;99.41;101070.66;4957145;29;20043;-77
2021/09/27 07:32:17;;;;;;;59.08;47.72;;;17.80;99.90;;;17.85;99.21;101068.06;4958093;29;20540;-74
2021/09/27 07:34:46;;;;;;;58.92;46.78;;;17.80;99.90;;;18.07;99.04;101095.03;4957646;29;20055;-75
2021/09/27 07:37:14;;;;;;;60.83;48.90;;;17.90;99.90;;;18.13;98.72;101093.94;4956593;29;20481;-76
2021/09/27 07:39:43;;;;;;;60.83;47.25;;;17.90;99.90;;;18.10;98.77;101100.28;4957747;29;20493;-75
2021/09/27 07:42:12;;;;;;;69.05;50.05;;;17.90;99.90;;;17.99;99.28;101081.88;4957547;29;20047;-76
2021/09/27 07:44:42;;;;;;;67.85;49.42;;;17.80;99.90;;;17.93;99.46;101076.72;4957425;29;20047;-75
2021/09/27 07:47:11;;;;;;;71.25;51.78;;;17.80;99.90;;;17.87;99.61;101059.97;4956400;29;20102;-76
2021/09/27 07:49:39;;;;;;;66.82;50.22;;;17.80;99.90;;;17.96;99.98;101081.97;4957743;29;20078;-76
2021/09/27 07:52:08;;;;;;;71.28;50.78;;;17.80;99.90;;;17.90;100.00;101090.19;4957454;29;20051;-76
2021/09/27 07:54:39;;;;;;;63.67;50.75;;;17.70;99.90;;;18.06;100.00;101095.94;4957892;29;20433;-75
2021/09/27 07:57:08;;;;;;;66.30;49.30;;;17.80;99.90;;;18.17;99.92;101101.84;4957804;29;20043;-76
2021/09/27 07:59:37;;;;;;;66.25;48.83;;;17.90;99.90;;;18.21;98.78;101105.31;4957270;29;20494;-76
2021/09/27 08:02:07;;;;;;;59.53;45.60;;;17.90;99.90;;;18.13;99.38;101072.53;4957206;29;20051;-75
2021/09/27 08:04:36;;;;;;;63.75;49.30;;;17.90;99.90;;;18.02;99.36;101030.91;4957472;29;20043;-76
2021/09/27 08:07:04;;;;;;;62.92;48.22;;;18.00;99.90;;;18.24;99.36;101062.34;4957133;29;20035;-77
2021/09/27 08:09:33;;;;;;;61.92;48.53;;;18.00;99.90;;;18.17;99.61;101048.31;4940197;29;20044;-75
2021/09/27 08:12:01;;;;;;;59.25;47.97;;;18.00;99.90;;;18.19;99.26;101057.16;4957165;28;20043;-76
2021/09/27 08:14:30;;;;;;;57.30;45.28;;;18.00;99.90;;;18.33;99.40;101052.19;4957088;29;20054;-77
2021/09/27 08:16:59;;;;;;;60.05;47.00;;;18.10;99.90;;;18.33;99.35;101054.88;4957025;29;20098;-76
2021/09/27 08:19:28;;;;;;;59.25;45.08;;;18.10;99.90;;;18.35;99.07;101057.53;4956016;29;20051;-78
2021/09/27 08:21:57;;;;;;;57.13;42.73;;;18.10;99.90;;;18.23;99.01;101032.03;4957118;29;20059;-77
2021/09/27 08:24:25;;;;;;;59.28;44.60;;;18.10;99.90;;;18.40;98.84;101043.06;4956865;29;20498;-75
2021/09/27 08:26:54;;;;;;;53.38;42.53;;;18.20;99.90;;;18.38;98.39;101052.94;4957132;29;20043;-75
2021/09/27 08:29:22;;;;;;;53.65;40.90;;;18.20;99.90;;;18.38;98.14;101060.09;4957289;29;20047;-76
2021/09/27 08:31:50;;;;;;;53.72;42.28;;;18.10;99.90;;;18.43;98.14;101048.31;4956764;29;20074;-76
2021/09/27 08:34:19;;;;;;;52.13;39.10;;;18.20;99.90;;;18.45;97.50;101046.47;4957092;29;20126;-76
2021/09/27 08:36:51;;;;;;;55.65;40.55;;;18.20;99.90;;;18.61;97.12;101037.00;4955967;29;20140;-76
2021/09/27 08:39:22;;;;;;;47.17;36.00;;;18.30;99.90;;;18.64;96.62;101036.88;4956679;29;20486;-76
2021/09/27 08:41:54;;;;;;;43.15;35.08;;;18.40;99.90;;;18.61;96.42;101039.69;4956883;29;20047;-76
2021/09/27 08:44:50;;;;;;;41.30;34.13;;;18.40;99.90;;;18.53;95.71;100989.94;4956358;29;20094;-75
2021/09/27 08:47:29;;;;;;;41.42;32.67;;;18.50;99.90;;;18.79;95.34;101017.56;4956512;29;20058;-75
2021/09/27 08:50:05;;;;;;;29.83;26.08;;;18.60;99.90;;;18.85;94.08;101038.78;4956996;29;20445;-76
2021/09/27 08:52:41;;;;;;;30.15;25.15;;;18.70;99.90;;;18.96;93.29;101013.41;4956926;29;20031;-77
2021/09/27 08:55:13;;;;;;;30.83;25.02;;;18.70;99.90;;;18.99;92.81;101029.41;4956730;29;20044;-77
2021/09/27 08:57:51;;;;;;;32.67;23.50;;;18.70;99.90;;;18.97;92.11;101026.75;4956374;29;20043;-77
2021/09/27 09:00:42;;;;;;;28.40;22.00;;;18.80;99.90;;;18.89;91.45;101002.91;4956822;29;20175;-77
2021/09/27 09:03:21;;;;;;;26.15;20.52;;;18.80;99.90;;;19.05;91.44;101015.78;4956774;29;20050;-77
2021/09/27 09:05:55;;;;;;;28.65;21.80;;;18.80;99.90;;;19.22;91.39;101007.97;4956188;29;20047;-76
2021/09/27 09:08:33;;;;;;;32.42;21.80;;;18.90;99.90;;;19.11;91.07;100997.63;4956395;29;20082;-77
2021/09/27 09:11:13;;;;;;;28.27;21.40;;;18.90;99.90;;;19.12;91.24;101012.81;4955132;29;20106;-75
2021/09/27 09:13:46;;;;;;;27.05;19.30;;;18.90;99.90;;;19.18;90.71;101009.03;4956377;29;20535;-74
2021/09/27 09:16:19;;;;;;;24.75;20.58;;;19.00;99.90;;;19.02;90.94;100992.63;4956013;29;20035;-75
2021/09/27 09:18:53;;;;;;;23.15;18.48;;;19.00;99.90;;;19.20;90.49;100988.38;4954911;29;20553;-76
2021/09/27 09:21:33;;;;;;;23.73;18.13;;;19.00;99.90;;;19.11;91.05;100970.81;4951349;29;20056;-75
2021/09/27 09:24:07;;;;;;;22.02;18.02;;;19.00;99.90;;;19.43;90.17;100988.41;4936238;29;20477;-75
2021/09/27 09:26:40;;;;;;;21.67;17.27;;;19.10;99.90;;;19.38;89.85;100982.31;4937003;29;20048;-75
2021/09/27 09:29:17;;;;;;;23.90;17.08;;;19.20;99.90;;;19.32;89.41;100986.13;4936638;29;20047;-75
2021/09/27 09:31:53;;;;;;;20.80;15.93;;;19.20;99.90;;;19.25;89.42;100968.50;4936824;29;20047;-76
2021/09/27 09:34:34;;;;;;;20.35;15.57;;;19.20;99.90;;;19.44;89.65;100991.03;4936449;29;20044;-76
2021/09/27 09:37:08;;;;;;;17.58;13.30;;;19.20;99.90;;;19.41;88.10;100976.88;4936533;29;20043;-76
2021/09/27 09:39:58;;;;;;;15.57;11.13;;;19.20;99.90;;;19.30;86.91;100954.91;4936465;29;20043;-76
2021/09/27 09:42:33;;;;;;;13.25;11.63;;;19.30;99.90;;;19.59;87.05;100974.31;4935467;29;20589;-75
2021/09/27 09:45:16;;;;;;;14.27;9.68;;;19.40;99.90;;;19.50;85.29;100985.44;4936284;29;20044;-75
2021/09/27 09:47:45;;;;;;;14.13;8.75;;;19.40;99.90;;;19.56;85.07;100985.19;4936350;29;20058;-75
2021/09/27 09:50:29;;;;;;;12.20;8.93;;;19.40;99.90;;;19.57;84.50;101026.28;4936422;29;20127;-75
2021/09/27 09:52:59;;;;;;;14.30;8.55;;;19.40;99.90;;;19.60;84.39;101002.03;4936252;29;20052;-76
2021/09/27 09:55:35;;;;;;;24.73;9.85;;;19.30;99.90;;;19.67;84.77;100971.31;4936069;29;20048;-76
2021/09/27 09:58:07;;;;;;;12.70;9.10;;;19.40;99.90;;;19.69;84.40;100966.78;4936428;29;20383;-75
2021/09/27 10:00:46;;;;;;;18.95;7.93;;;19.50;99.90;;;19.84;83.20;101003.72;4936317;29;20075;-74
2021/09/27 10:03:19;;;;;;;17.15;8.80;;;19.60;99.90;;;19.89;83.51;100985.66;4936041;29;20413;-76
2021/09/27 10:05:53;;;;;;;15.70;7.97;;;19.60;99.90;;;19.98;82.69;100987.94;4935950;29;20048;-71
2021/09/27 10:08:24;;;;;;;14.20;7.45;;;19.70;99.90;;;19.93;82.16;100963.09;4936556;29;20051;-78
2021/09/27 10:10:58;;;;;;;12.52;7.78;;;19.80;99.90;;;20.05;81.68;101016.31;4935986;29;20075;-76
2021/09/27 10:13:40;;;;;;;9.38;7.10;;;19.80;99.90;;;20.13;81.24;100998.03;4935015;29;20059;-77
2021/09/27 10:16:15;;;;;;;12.73;8.30;;;19.80;99.90;;;18.25;81.20;100713.31;4934953;29;20418;-78
2021/09/27 10:18:46;;;;;;;14.15;8.02;;;19.70;99.90;;;20.06;81.61;100988.50;4935834;29;20294;-76
2021/09/27 10:21:31;;;;;;;14.27;7.53;;;19.80;99.90;;;20.06;80.81;100987.63;4942643;29;20406;-77
2021/09/27 10:24:17;;;;;;;13.88;7.65;;;19.80;99.90;;;20.05;81.37;100973.34;4954543;29;20051;-74
2021/09/27 10:26:52;;;;;;;10.90;7.90;;;19.80;99.90;;;20.13;81.38;100973.03;4937549;29;20469;-74
2021/09/27 10:29:28;;;;;;;12.55;7.55;;;19.90;99.90;;;20.10;81.20;100974.00;4953836;29;20477;-74
2021/09/27 10:32:03;;;;;;;11.00;6.97;;;19.90;99.90;;;20.10;80.50;100968.66;4954471;29;20103;-75
2021/09/27 10:34:34;;;;;;;11.98;7.55;;;19.80;99.90;;;20.21;80.96;100969.09;4954822;28;20052;-75
2021/09/27 10:37:10;;;;;;;11.43;7.55;;;20.00;99.90;;;20.43;80.17;100969.94;4958386;29;20110;-75
2021/09/27 10:39:39;;;;;;;13.50;7.05;;;20.20;99.90;;;20.69;80.36;100972.34;4941771;29;20533;-78
2021/09/27 10:42:12;;;;;;;13.55;7.60;;;20.40;99.90;;;20.66;79.08;100945.59;4958915;29;20066;-75
2021/09/27 10:44:46;;;;;;;13.57;7.45;;;20.50;99.90;;;20.69;77.78;101017.19;4958570;29;20102;-77